createdAt,value
2019-05-30T00:03:34.558Z,15.50
2019-05-30T00:07:36.335Z,15.40
2019-05-30T00:11:38.506Z,15.37
2019-05-30T00:15:40.248Z,15.38
2019-05-30T00:19:42.406Z,15.29
2019-05-30T00:23:44.578Z,15.28
2019-05-30T00:27:47.048Z,15.18
2019-05-30T00:31:48.863Z,15.21
2019-05-30T00:35:50.909Z,15.17
2019-05-30T00:39:52.655Z,15.13
2019-05-30T00:43:55.894Z,15.11
2019-05-30T00:47:58.141Z,15.24
2019-05-30T00:52:00.537Z,15.16
2019-05-30T00:56:03.204Z,15.29
2019-05-30T01:00:05.238Z,15.17
2019-05-30T01:04:07.403Z,15.16
2019-05-30T01:08:09.150Z,15.13
2019-05-30T01:12:11.793Z,15.11
2019-05-30T01:16:13.567Z,15.11
2019-05-30T01:20:16.745Z,15.00
2019-05-30T01:24:18.584Z,14.98
2019-05-30T01:28:20.716Z,14.90
2019-05-30T01:32:22.443Z,14.95
2019-05-30T01:36:24.217Z,14.92
2019-05-30T01:40:26.296Z,14.97
2019-05-30T01:44:28.026Z,14.93
2019-05-30T01:48:29.817Z,15.00
2019-05-30T01:52:31.608Z,15.07
2019-05-30T01:56:34.460Z,15.03
2019-05-30T02:00:37.625Z,15.08
2019-05-30T02:04:40.010Z,15.10
2019-05-30T02:08:42.090Z,15.01
2019-05-30T02:12:43.948Z,14.93
2019-05-30T02:16:46.164Z,14.94
2019-05-30T02:25:32.357Z,14.92
2019-05-30T02:29:34.249Z,14.86
2019-05-30T02:33:36.013Z,14.84
2019-05-30T02:37:37.832Z,14.86
2019-05-30T02:41:39.597Z,14.82
2019-05-30T02:45:41.680Z,14.82
2019-05-30T02:49:43.413Z,14.83
2019-05-30T02:53:45.433Z,14.93
2019-05-30T02:57:47.187Z,14.81
2019-05-30T03:02:01.218Z,14.87
2019-05-30T03:05:52.716Z,14.92
2019-05-30T03:09:54.679Z,14.90
2019-05-30T03:13:56.439Z,14.94
2019-05-30T03:17:58.359Z,15.06
2019-05-30T03:22:00.193Z,15.03
2019-05-30T03:26:02.605Z,15.04
2019-05-30T03:30:13.358Z,15.02
2019-05-30T03:34:18.236Z,15.04
2019-05-30T03:38:15.474Z,15.04
2019-05-30T03:42:16.760Z,14.96
2019-05-30T03:46:22.578Z,14.96
2019-05-30T03:50:28.149Z,15.00
2019-05-30T03:54:30.189Z,15.10
2019-05-30T03:59:14.973Z,14.93
2019-05-30T04:03:40.694Z,15.13
2019-05-30T04:07:49.001Z,15.15
2019-05-30T04:12:03.111Z,14.98
2019-05-30T04:16:06.795Z,15.16
2019-05-30T04:20:09.362Z,15.22
2019-05-30T04:24:14.086Z,15.27
2019-05-30T04:28:16.347Z,15.35
2019-05-30T04:32:19.377Z,15.41
2019-05-30T04:36:21.122Z,15.22
2019-05-30T04:40:22.921Z,15.47
2019-05-30T04:44:24.659Z,15.45
2019-05-30T04:48:26.505Z,15.40
2019-05-30T04:52:28.256Z,15.43
2019-05-30T04:56:30.160Z,15.46
2019-05-30T05:00:32.046Z,15.38
2019-05-30T05:04:33.926Z,15.53
2019-05-30T05:08:35.737Z,15.53
2019-05-30T05:12:38.180Z,15.65
2019-05-30T05:16:39.949Z,15.54
2019-05-30T05:20:41.690Z,15.71
2019-05-30T05:24:43.516Z,15.73
2019-05-30T05:28:45.540Z,15.68
2019-05-30T05:32:47.655Z,15.55
2019-05-30T05:36:49.399Z,15.69
2019-05-30T05:40:51.144Z,15.83
2019-05-30T05:44:52.960Z,15.93
2019-05-30T05:48:54.739Z,15.95
2019-05-30T05:52:56.887Z,16.05
2019-05-30T05:56:58.713Z,16.05
2019-05-30T06:01:00.466Z,16.08
2019-05-30T06:05:02.717Z,16.13
2019-05-30T06:09:05.184Z,16.30
2019-05-30T06:13:07.347Z,16.43
2019-05-30T06:17:09.430Z,16.38
2019-05-30T06:21:11.494Z,16.43
2019-05-30T06:25:13.777Z,16.45
2019-05-30T06:29:15.492Z,16.55
2019-05-30T06:33:18.572Z,16.64
2019-05-30T06:37:21.056Z,16.55
2019-05-30T06:41:23.533Z,16.66
2019-05-30T06:45:26.720Z,16.70
2019-05-30T06:49:29.077Z,16.69
2019-05-30T06:53:31.515Z,16.80
2019-05-30T06:57:33.347Z,16.74
2019-05-30T07:01:35.248Z,16.82
2019-05-30T07:05:37.595Z,16.77
2019-05-30T07:09:39.757Z,16.76
2019-05-30T07:13:42.343Z,16.80
2019-05-30T07:17:44.213Z,17.07
2019-05-30T07:21:45.958Z,17.09
2019-05-30T07:25:48.014Z,17.13
2019-05-30T07:29:49.823Z,17.31
2019-05-30T07:33:51.559Z,17.34
2019-05-30T07:37:53.271Z,17.37
2019-05-30T07:42:05.673Z,17.30
2019-05-30T07:45:58.832Z,17.42
2019-05-30T07:50:02.307Z,17.43
2019-05-30T07:54:04.495Z,17.41
2019-05-30T07:58:06.652Z,17.33
2019-05-30T08:02:08.396Z,17.43
2019-05-30T08:06:10.145Z,17.44
2019-05-30T08:10:12.488Z,17.49
2019-05-30T08:14:14.227Z,17.54
2019-05-30T08:18:15.939Z,17.76
2019-05-30T08:22:17.684Z,17.63
2019-05-30T08:26:19.452Z,17.73
2019-05-30T08:30:21.832Z,17.60
2019-05-30T08:34:23.979Z,17.69
2019-05-30T08:38:25.787Z,17.72
2019-05-30T08:42:28.427Z,17.87
2019-05-30T08:46:32.260Z,18.22
2019-05-30T08:50:34.271Z,18.37
2019-05-30T08:54:36.454Z,18.50
2019-05-30T08:58:38.793Z,18.57
2019-05-30T09:02:40.986Z,18.72
2019-05-30T09:06:44.186Z,18.77
2019-05-30T09:10:46.559Z,18.81
2019-05-30T09:14:48.275Z,18.97
2019-05-30T09:18:50.029Z,19.03
2019-05-30T09:22:51.839Z,19.05
2019-05-30T09:26:53.685Z,19.31
2019-05-30T09:30:55.830Z,19.54
2019-05-30T09:34:58.021Z,19.84
2019-05-30T09:39:00.115Z,20.13
2019-05-30T09:43:02.328Z,20.04
2019-05-30T09:47:04.194Z,20.38
2019-05-30T09:51:06.009Z,20.50
2019-05-30T09:55:08.468Z,20.68
2019-05-30T09:59:10.297Z,20.77
2019-05-30T10:03:12.139Z,20.81
2019-05-30T10:07:13.975Z,20.66
2019-05-30T10:11:16.256Z,20.86
2019-05-30T10:15:18.864Z,20.81
2019-05-30T10:23:22.784Z,20.82
2019-05-30T10:27:24.860Z,20.66
2019-05-30T10:31:27.031Z,20.76
2019-05-30T10:35:30.263Z,20.67
2019-05-30T10:39:32.149Z,20.39
2019-05-30T10:43:33.926Z,20.58
2019-05-30T10:47:36.161Z,20.39
2019-05-30T10:51:38.181Z,20.51
2019-05-30T10:55:40.063Z,20.39
2019-05-30T10:59:42.586Z,20.44
2019-05-30T11:03:44.527Z,20.47
2019-05-30T11:08:06.078Z,20.48
2019-05-30T11:12:06.285Z,20.51
2019-05-30T11:16:08.033Z,20.47
2019-05-30T11:20:10.762Z,20.44
2019-05-30T11:24:12.964Z,20.41
2019-05-30T11:28:14.812Z,20.48
2019-05-30T11:32:16.691Z,20.61
2019-05-30T11:36:18.412Z,20.60
2019-05-30T11:40:20.206Z,20.46
2019-05-30T11:44:21.997Z,20.44
2019-05-30T11:48:24.223Z,20.45
2019-05-30T11:52:26.041Z,20.37
2019-05-30T11:56:27.814Z,20.34
2019-05-30T12:00:29.872Z,20.36
2019-05-30T12:04:32.136Z,20.25
2019-05-30T12:08:33.928Z,20.25
2019-05-30T12:12:35.716Z,20.37
2019-05-30T12:16:38.207Z,20.38
2019-05-30T12:20:40.556Z,20.46
2019-05-30T12:24:42.782Z,20.53
2019-05-30T12:28:44.944Z,20.46
2019-05-30T12:32:46.924Z,20.43
2019-05-30T12:36:49.027Z,20.28
2019-05-30T12:40:50.781Z,20.23
2019-05-30T12:44:53.369Z,20.23
2019-05-30T12:48:57.216Z,20.22
2019-05-30T12:53:00.795Z,20.13
2019-05-30T12:57:03.885Z,20.18
2019-05-30T13:01:07.043Z,20.24
2019-05-30T13:05:10.201Z,20.24
2019-05-30T13:09:12.506Z,20.17
2019-05-30T13:13:14.932Z,20.19
2019-05-30T13:17:16.916Z,20.20
2019-05-30T13:21:19.511Z,20.24
2019-05-30T13:25:23.260Z,20.20
2019-05-30T13:29:25.182Z,20.28
2019-05-30T13:33:27.080Z,20.20
2019-05-30T13:37:28.859Z,20.11
2019-05-30T13:41:30.711Z,20.16
2019-05-30T13:45:33.182Z,20.19
2019-05-30T13:49:35.008Z,20.16
2019-05-30T13:53:36.806Z,20.15
2019-05-30T13:57:39.045Z,20.02
2019-05-30T14:01:40.787Z,20.03
2019-05-30T14:05:42.679Z,19.81
2019-05-30T14:09:44.489Z,19.76
2019-05-30T14:13:46.559Z,19.67
2019-05-30T14:17:48.406Z,19.59
2019-05-30T14:21:50.198Z,19.55
2019-05-30T14:25:52.658Z,19.56
2019-05-30T14:29:54.628Z,19.53
2019-05-30T14:33:56.568Z,19.60
2019-05-30T14:37:58.515Z,19.50
2019-05-30T14:42:00.252Z,19.49
2019-05-30T14:46:02.021Z,19.44
2019-05-30T14:50:04.638Z,19.51
2019-05-30T14:54:06.874Z,19.46
2019-05-30T14:58:11.616Z,19.57
2019-05-30T15:02:14.204Z,19.52
2019-05-30T15:06:18.397Z,19.55
2019-05-30T15:10:22.522Z,19.56
2019-05-30T15:14:24.346Z,19.57
2019-05-30T15:18:27.047Z,19.56
2019-05-30T15:22:28.911Z,19.65
2019-05-30T15:26:30.837Z,19.75
2019-05-30T15:30:33.156Z,19.99
2019-05-30T15:34:36.244Z,20.03
2019-05-30T15:38:38.959Z,20.25
2019-05-30T15:42:44.586Z,20.50
2019-05-30T15:46:46.450Z,20.66
2019-05-30T15:50:48.423Z,20.70
2019-05-30T15:54:50.467Z,20.84
2019-05-30T15:59:12.102Z,20.91
2019-05-30T16:03:14.675Z,21.00
2019-05-30T16:07:16.800Z,21.10
2019-05-30T16:11:19.636Z,20.98
2019-05-30T16:15:21.759Z,20.97
2019-05-30T16:19:26.461Z,21.00
2019-05-30T16:23:27.624Z,21.09
2019-05-30T16:27:31.239Z,21.11
2019-05-30T16:31:33.112Z,20.92
2019-05-30T16:35:35.138Z,20.89
2019-05-30T16:39:37.267Z,20.82
2019-05-30T16:43:38.984Z,20.79
2019-05-30T16:47:40.732Z,20.77
2019-05-30T16:51:42.512Z,20.84
2019-05-30T16:55:44.292Z,20.81
2019-05-30T16:59:46.039Z,20.92
2019-05-30T17:03:47.819Z,20.87
2019-05-30T17:07:49.647Z,20.87
2019-05-30T17:11:51.443Z,20.74
2019-05-30T17:15:53.899Z,20.64
2019-05-30T17:19:56.009Z,20.63
2019-05-30T17:23:57.909Z,20.66
2019-05-30T17:27:59.673Z,20.67
2019-05-30T17:32:01.461Z,20.59
2019-05-30T17:36:03.293Z,20.65
2019-05-30T17:40:07.382Z,20.58
2019-05-30T17:44:09.124Z,20.62
2019-05-30T17:48:16.526Z,20.69
2019-05-30T17:52:15.340Z,20.64
2019-05-30T17:56:17.515Z,20.86
2019-05-30T18:00:20.454Z,20.91
2019-05-30T18:04:22.492Z,21.02
2019-05-30T18:08:24.824Z,21.00
2019-05-30T18:12:27.098Z,20.93
2019-05-30T18:16:29.301Z,20.88
2019-05-30T18:20:45.579Z,20.84
2019-05-30T18:24:35.734Z,20.83
2019-05-30T18:28:38.353Z,20.83
2019-05-30T18:32:40.277Z,20.73
2019-05-30T18:40:43.333Z,20.66
2019-05-30T18:44:45.255Z,20.53
2019-05-30T18:48:47.214Z,20.42
2019-05-30T18:52:49.019Z,20.30
2019-05-30T18:56:51.267Z,20.24
2019-05-30T19:00:53.705Z,20.18
2019-05-30T19:04:56.399Z,20.10
2019-05-30T19:09:00.106Z,19.99
2019-05-30T19:13:02.597Z,19.90
2019-05-30T19:17:04.526Z,19.84
2019-05-30T19:21:07.343Z,19.76
2019-05-30T19:25:09.466Z,19.73
2019-05-30T19:29:11.796Z,19.61
2019-05-30T19:33:13.591Z,19.61
2019-05-30T19:37:15.346Z,19.59
2019-05-30T19:41:17.208Z,19.67
2019-05-30T19:45:19.802Z,19.50
2019-05-30T19:49:21.764Z,19.56
2019-05-30T19:53:23.587Z,19.37
2019-05-30T19:57:25.609Z,19.45
2019-05-30T20:01:27.501Z,19.53
2019-05-30T20:05:32.562Z,19.54
2019-05-30T20:09:34.599Z,19.33
2019-05-30T20:13:39.235Z,19.35
2019-05-30T20:17:45.219Z,19.26
2019-05-30T20:21:48.885Z,19.25
2019-05-30T20:25:51.970Z,19.23
2019-05-30T20:29:54.156Z,19.14
2019-05-30T20:33:56.592Z,19.06
2019-05-30T20:38:01.353Z,19.02
2019-05-30T20:42:18.226Z,18.98
2019-05-30T20:46:22.343Z,19.01
2019-05-30T20:50:14.864Z,18.97
2019-05-30T20:54:16.599Z,19.01
2019-05-30T20:58:19.817Z,18.88
2019-05-30T21:02:23.470Z,18.95
2019-05-30T21:06:26.470Z,19.00
2019-05-30T21:10:29.749Z,18.97
2019-05-30T21:14:33.296Z,19.02
2019-05-30T21:18:37.727Z,19.01
2019-05-30T21:22:40.627Z,19.00
2019-05-30T21:26:42.856Z,18.96
2019-05-30T21:30:47.694Z,18.97
2019-05-30T21:34:50.163Z,18.85
2019-05-30T21:38:52.416Z,18.83
2019-05-30T21:43:05.171Z,18.84
2019-05-30T21:46:58.166Z,18.70
2019-05-30T21:51:00.405Z,18.65
2019-05-30T21:55:03.737Z,18.56
2019-05-30T21:59:07.005Z,18.58
2019-05-30T22:03:09.601Z,18.54
2019-05-30T22:07:11.506Z,18.48
2019-05-30T22:11:13.767Z,18.48
2019-05-30T22:15:16.284Z,18.39
2019-05-30T22:19:18.145Z,18.36
2019-05-30T22:23:20.026Z,18.38
2019-05-30T22:27:21.806Z,18.27
2019-05-30T22:31:23.660Z,18.18
2019-05-30T22:35:25.549Z,18.06
2019-05-30T22:39:27.882Z,18.05
2019-05-30T22:43:30.068Z,17.92
2019-05-30T22:47:32.285Z,17.82
2019-05-30T22:51:34.087Z,17.83
2019-05-30T22:55:36.889Z,17.82
2019-05-30T22:59:39.256Z,17.79
2019-05-30T23:03:41.876Z,17.69
2019-05-30T23:07:43.782Z,17.65
2019-05-30T23:11:45.644Z,17.56
2019-05-30T23:15:48.161Z,17.55
2019-05-30T23:19:51.378Z,17.53
2019-05-30T23:23:55.280Z,17.52
2019-05-30T23:27:57.643Z,17.44
2019-05-30T23:31:59.570Z,17.42
2019-05-30T23:36:01.311Z,17.38
2019-05-30T23:40:03.407Z,17.34
2019-05-30T23:44:11.271Z,17.28
2019-05-30T23:48:09.109Z,17.25
2019-05-30T23:52:10.979Z,17.14
2019-05-30T23:56:12.787Z,17.17
